M I D A S
Marine Information and Data Acquisition System
Tripno 1099 of the Zeeleeuw from 2006-03-30 06:32:14 to 2006-03-30 10:47:52
Back to CruiseResearch ActivitiesStationsMapUnderway DataData graphs

EquipmentUnitsComments
TimeDGPSUTC
LatitudeDGPSDM.mWGS84
LongitudeDGPSDM.mWGS84
SpeedMeteo Stationm/sRelative wind speed
DirectionMeteo StationdegRelative wind direction
TemperatureMeteo Stationdeg CelciusAir temperature
PressureMeteo StationPaAtmospheric pressure
HumidityMeteo Station%Relative humidity
Missing or incorrect values are displayed as -999
Metereological data collected by the RV Zeeleeuw from 2006-03-30 06:32:05 to 2006-03-30 11:00:34
                                                                                    Next 1000 lines
Time Latitude Longitude Speed Direction Temperature Pressure Humidity
2006-03-30 06:32:15 51°13.599 2°56.09 -999 163 10.4 99970 94
2006-03-30 06:32:20 51°13.6 2°56.088 -999 178 10.4 99980 93
2006-03-30 06:32:25 51°13.601 2°56.085 -999 174 10.4 99980 93
2006-03-30 06:32:30 51°13.602 2°56.083 -999 164 10.5 99970 94
2006-03-30 06:32:35 51°13.603 2°56.08 -999 182 10.5 99970 94
2006-03-30 06:32:40 51°13.604 2°56.076 -999 170 10.4 99980 94
2006-03-30 06:32:46 51°13.606 2°56.072 -999 159 10.4 99980 94
2006-03-30 06:32:51 51°13.607 2°56.068 -999 159 10.4 99970 94
2006-03-30 06:32:56 51°13.608 2°56.064 -999 157 10.4 99970 94
2006-03-30 06:33:00 51°13.609 2°56.061 -999 167 10.4 99970 94
2006-03-30 06:33:06 51°13.611 2°56.056 -999 195 10.4 99970 94
2006-03-30 06:33:11 51°13.613 2°56.051 -999 172 10.4 99980 94
2006-03-30 06:33:16 51°13.615 2°56.046 -999 182 10.4 99980 94
2006-03-30 06:33:20 51°13.616 2°56.042 -999 174 10.4 99980 94
2006-03-30 06:33:25 51°13.618 2°56.037 -999 173 10.4 99980 94
2006-03-30 06:33:31 51°13.62 2°56.03 -999 159 10.4 99970 94
2006-03-30 06:33:36 51°13.621 2°56.024 -999 178 10.4 99970 94
2006-03-30 06:33:40 51°13.623 2°56.019 -999 159 10.4 99970 94
2006-03-30 06:33:46 51°13.625 2°56.011 -999 191 10.4 99970 94
2006-03-30 06:33:51 51°13.627 2°56.003 -999 192 10.4 99970 94
2006-03-30 06:33:56 51°13.628 2°55.997 -999 174 10.4 99970 94
2006-03-30 06:34:00 51°13.629 2°55.992 -999 167 10.3 99970 94
2006-03-30 06:34:06 51°13.631 2°55.985 -999 149 10.3 99970 94
2006-03-30 06:34:10 51°13.632 2°55.982 -999 146 10.4 99970 94
2006-03-30 06:34:16 51°13.632 2°55.978 -999 142 10.4 99970 94
2006-03-30 06:34:20 51°13.633 2°55.977 -999 145 10.4 99970 94
2006-03-30 06:34:25 51°13.633 2°55.975 -999 167 10.4 99970 94
2006-03-30 06:34:30 51°13.634 2°55.973 -999 141 10.4 99980 94
2006-03-30 06:34:35 51°13.634 2°55.972 -999 179 10.4 99980 94
2006-03-30 06:34:40 51°13.635 2°55.97 -999 179 10.4 99970 94
2006-03-30 06:34:45 51°13.635 2°55.968 -999 165 10.4 99970 94
2006-03-30 06:34:50 51°13.636 2°55.965 -999 150 10.3 99970 94
2006-03-30 06:34:56 51°13.637 2°55.961 -999 155 10.3 99970 94
2006-03-30 06:35:00 51°13.638 2°55.958 -999 149 10.4 99970 94
2006-03-30 06:35:05 51°13.639 2°55.954 -999 169 10.4 99970 94
2006-03-30 06:35:10 51°13.64 2°55.949 -999 162 10.3 99980 94
2006-03-30 06:35:16 51°13.642 2°55.943 -999 163 10.3 99980 94
2006-03-30 06:35:20 51°13.643 2°55.939 -999 163 10.3 99970 94
2006-03-30 06:35:26 51°13.645 2°55.932 -999 160 10.3 99970 94
2006-03-30 06:35:31 51°13.647 2°55.925 -999 159 10.3 99970 94
2006-03-30 06:35:36 51°13.649 2°55.919 -999 159 10.3 99970 94
2006-03-30 06:35:40 51°13.651 2°55.913 -999 166 10.3 99970 94
2006-03-30 06:35:46 51°13.654 2°55.904 -999 160 10.3 99970 94
2006-03-30 06:35:51 51°13.656 2°55.897 -999 188 10.3 99970 94
2006-03-30 06:35:56 51°13.659 2°55.889 -999 152 10.3 99970 94
2006-03-30 06:36:00 51°13.661 2°55.883 -999 156 10.3 99970 94
2006-03-30 06:36:06 51°13.665 2°55.873 -999 157 10.3 99970 94
2006-03-30 06:36:10 51°13.667 2°55.866 -999 163 10.3 99970 94
2006-03-30 06:36:16 51°13.671 2°55.856 -999 166 10.3 99970 94
2006-03-30 06:36:20 51°13.674 2°55.849 -999 155 10.2 99970 94
2006-03-30 06:36:26 51°13.678 2°55.839 -999 156 10.2 99970 94
2006-03-30 06:36:30 51°13.68 2°55.832 -999 155 10.2 99970 94
2006-03-30 06:36:36 51°13.684 2°55.823 -999 161 10.2 99970 94
2006-03-30 06:36:41 51°13.687 2°55.815 -999 161 10.2 99970 94
2006-03-30 06:36:46 51°13.689 2°55.808 -999 172 10.2 99970 94
2006-03-30 06:36:51 51°13.692 2°55.801 -999 166 10.2 99970 94
2006-03-30 06:36:56 51°13.694 2°55.794 -999 149 10.2 99970 94
2006-03-30 06:37:00 51°13.696 2°55.789 -999 149 10.2 99970 94
2006-03-30 06:37:04 51°13.697 2°55.783 -999 175 10.2 99970 94
2006-03-30 06:37:10 51°13.7 2°55.776 -999 161 10.2 99970 94
2006-03-30 06:37:16 51°13.702 2°55.768 -999 166 10.2 99970 94
2006-03-30 06:37:20 51°13.704 2°55.763 -999 153 10.2 99970 95
2006-03-30 06:37:26 51°13.706 2°55.756 -999 155 10.2 99970 95
2006-03-30 06:37:31 51°13.707 2°55.751 -999 154 10.2 99970 95
2006-03-30 06:37:36 51°13.708 2°55.748 -999 172 10.2 99970 95
2006-03-30 06:37:40 51°13.709 2°55.745 -999 168 10.2 99980 95
2006-03-30 06:37:46 51°13.71 2°55.743 -999 182 10.2 99980 95
2006-03-30 06:37:50 51°13.71 2°55.743 -999 168 10.2 99970 95
2006-03-30 06:37:56 51°13.712 2°55.743 -999 183 10.2 99970 95
2006-03-30 06:38:00 51°13.713 2°55.743 -999 167 10.2 99950 95
2006-03-30 06:38:06 51°13.714 2°55.746 -999 188 10.2 99950 95
2006-03-30 06:38:11 51°13.716 2°55.748 -999 195 10.2 99970 95
2006-03-30 06:38:16 51°13.717 2°55.75 -999 203 10.2 99970 95
2006-03-30 06:38:21 51°13.719 2°55.752 -999 199 10.2 99970 95
2006-03-30 06:38:26 51°13.72 2°55.753 -999 197 10.2 99970 95
2006-03-30 06:38:31 51°13.721 2°55.754 -999 195 10.2 99970 95
2006-03-30 06:38:36 51°13.722 2°55.754 -999 213 10.2 99970 95
2006-03-30 06:38:41 51°13.722 2°55.753 -999 222 10.2 99970 95
2006-03-30 06:38:45 51°13.722 2°55.752 -999 214 10.2 99970 95
2006-03-30 06:38:50 51°13.722 2°55.75 -999 194 10.2 99970 95
2006-03-30 06:38:56 51°13.721 2°55.748 -999 240 10.2 99970 95
2006-03-30 06:39:01 51°13.72 2°55.745 -999 231 10.2 99980 95
2006-03-30 06:39:06 51°13.719 2°55.742 -999 226 10.2 99980 95
2006-03-30 06:39:10 51°13.717 2°55.74 -999 226 10.2 99980 95
2006-03-30 06:39:16 51°13.714 2°55.736 -999 227 10.2 99980 95
2006-03-30 06:39:21 51°13.713 2°55.734 -999 221 10.2 99970 95
2006-03-30 06:39:26 51°13.711 2°55.732 -999 235 10.2 99970 95
2006-03-30 06:39:30 51°13.71 2°55.731 -999 235 10.2 99980 95
2006-03-30 06:39:36 51°13.71 2°55.729 -999 237 10.2 99980 95
2006-03-30 06:39:41 51°13.71 2°55.728 -999 299 10.2 100000 95
2006-03-30 06:39:46 51°13.71 2°55.728 -999 304 10.2 100000 95
2006-03-30 06:39:51 51°13.711 2°55.727 -999 300 10.2 99980 95
2006-03-30 06:39:56 51°13.713 2°55.727 -999 300 10.2 99980 95
2006-03-30 06:40:00 51°13.716 2°55.726 -999 279 10.2 99980 95
2006-03-30 06:40:06 51°13.719 2°55.724 -999 276 10.2 99980 95
2006-03-30 06:40:11 51°13.722 2°55.721 -999 291 10.2 99980 95
2006-03-30 06:40:16 51°13.726 2°55.718 -999 315 10.2 99980 95
2006-03-30 06:40:20 51°13.73 2°55.716 -999 319 10.2 99970 95
2006-03-30 06:40:26 51°13.735 2°55.71 -999 271 10.2 99970 95
2006-03-30 06:40:31 51°13.74 2°55.706 -999 289 10.2 99980 95
2006-03-30 06:40:36 51°13.746 2°55.701 -999 302 10.2 99980 95
2006-03-30 06:40:40 51°13.751 2°55.697 -999 309 10.2 99980 95
2006-03-30 06:40:46 51°13.759 2°55.689 -999 243 10.2 99980 95
2006-03-30 06:40:51 51°13.766 2°55.683 -999 307 10.2 99980 95
2006-03-30 06:40:56 51°13.773 2°55.677 -999 326 10.2 99980 95
2006-03-30 06:41:00 51°13.779 2°55.671 -999 42 10.2 99970 95
2006-03-30 06:41:06 51°13.789 2°55.663 -999 358 10.2 99970 95
2006-03-30 06:41:11 51°13.797 2°55.657 -999 347 10.2 99970 95
2006-03-30 06:41:16 51°13.806 2°55.65 -999 334 10.2 99970 95
2006-03-30 06:41:20 51°13.813 2°55.645 -999 333 10.2 99970 95
2006-03-30 06:41:26 51°13.824 2°55.637 -999 329 10.2 99970 95
2006-03-30 06:41:31 51°13.833 2°55.63 -999 347 10.2 99970 95
2006-03-30 06:41:36 51°13.842 2°55.624 -999 13 10.2 99970 95
2006-03-30 06:41:41 51°13.852 2°55.617 -999 13 10.2 99970 95
2006-03-30 06:41:46 51°13.861 2°55.61 -999 334 10.2 99970 95
2006-03-30 06:41:51 51°13.871 2°55.603 -999 24 10.2 99970 95
2006-03-30 06:41:56 51°13.881 2°55.596 -999 303 10.2 99970 95
2006-03-30 06:42:00 51°13.889 2°55.591 -999 309 10.2 99970 95
2006-03-30 06:42:06 51°13.901 2°55.583 -999 308 10.2 99970 95
2006-03-30 06:42:10 51°13.908 2°55.578 -999 312 10.2 99980 95
2006-03-30 06:42:16 51°13.92 2°55.57 -999 336 10.2 99980 95
2006-03-30 06:42:20 51°13.927 2°55.564 -999 40 10.2 99960 95
2006-03-30 06:42:26 51°13.938 2°55.556 -999 292 10.2 99960 95
2006-03-30 06:42:31 51°13.947 2°55.55 -999 313 10.2 99950 95
2006-03-30 06:42:36 51°13.956 2°55.543 -999 282 10.2 99950 95
2006-03-30 06:42:40 51°13.964 2°55.538 -999 263 10.2 99980 95
2006-03-30 06:42:46 51°13.975 2°55.53 -999 336 10.2 99980 95
2006-03-30 06:42:51 51°13.984 2°55.524 -999 228 10.2 99990 95
2006-03-30 06:42:56 51°13.993 2°55.518 -999 39 10.2 99990 95
2006-03-30 06:43:01 51°14.002 2°55.512 -999 300 10.2 99970 95
2006-03-30 06:43:06 51°14.011 2°55.505 -999 293 10.2 99970 95
2006-03-30 06:43:10 51°14.018 2°55.5 -999 301 10.2 99970 95
2006-03-30 06:43:16 51°14.028 2°55.493 -999 312 10.2 99970 95
2006-03-30 06:43:20 51°14.036 2°55.488 -999 305 10.2 99980 95
2006-03-30 06:43:26 51°14.046 2°55.48 -999 277 10.2 99980 95
2006-03-30 06:43:30 51°14.054 2°55.475 -999 305 10.2 99970 95
2006-03-30 06:43:36 51°14.065 2°55.467 -999 321 10.2 99970 95
2006-03-30 06:43:41 51°14.074 2°55.46 -999 42 10.2 99970 95
2006-03-30 06:43:46 51°14.083 2°55.453 -999 334 10.2 99970 95
2006-03-30 06:43:50 51°14.09 2°55.447 -999 330 10.1 99990 95
2006-03-30 06:43:56 51°14.101 2°55.439 -999 302 10.1 99990 95
2006-03-30 06:44:01 51°14.11 2°55.431 -999 310 10.2 99980 95
2006-03-30 06:44:06 51°14.119 2°55.424 -999 333 10.2 99980 95
2006-03-30 06:44:11 51°14.128 2°55.416 -999 2 10.2 99980 95
2006-03-30 06:44:16 51°14.137 2°55.408 -999 346 10.2 99980 95
2006-03-30 06:44:20 51°14.144 2°55.402 -999 357 10.1 99980 95
2006-03-30 06:44:26 51°14.155 2°55.392 -999 339 10.1 99980 95
2006-03-30 06:44:31 51°14.165 2°55.383 -999 329 10.1 99980 95
2006-03-30 06:44:36 51°14.174 2°55.373 -999 329 10.1 99980 95
2006-03-30 06:44:40 51°14.181 2°55.365 -999 310 10.1 99970 95
2006-03-30 06:44:46 51°14.193 2°55.353 -999 327 10.1 99970 95
2006-03-30 06:44:51 51°14.202 2°55.343 -999 309 10.1 99970 95
2006-03-30 06:44:56 51°14.211 2°55.332 -999 323 10.1 99970 95
2006-03-30 06:45:00 51°14.219 2°55.322 -999 314 10.1 99960 95
2006-03-30 06:45:06 51°14.229 2°55.308 -999 312 10.1 99960 95
2006-03-30 06:45:11 51°14.238 2°55.296 -999 314 10.1 99960 95
2006-03-30 06:45:16 51°14.247 2°55.284 -999 308 10.1 99960 95
2006-03-30 06:45:21 51°14.255 2°55.271 -999 312 10.1 99970 95
2006-03-30 06:45:26 51°14.264 2°55.257 -999 308 10.1 99970 95
2006-03-30 06:45:31 51°14.272 2°55.243 -999 232 10 99960 95
2006-03-30 06:45:36 51°14.28 2°55.229 -999 227 10 99960 95
2006-03-30 06:45:40 51°14.286 2°55.217 -999 315 10 99960 95
2006-03-30 06:45:46 51°14.296 2°55.199 -999 325 10 99960 95
2006-03-30 06:45:51 51°14.304 2°55.183 -999 318 10 99950 95
2006-03-30 06:45:56 51°14.312 2°55.168 -999 38 10 99950 95
2006-03-30 06:46:01 51°14.321 2°55.152 -999 332 10 99950 95
2006-03-30 06:46:05 51°14.327 2°55.14 -999 307 10 99950 95
2006-03-30 06:46:10 51°14.336 2°55.124 -999 332 9.9 99950 95
2006-03-30 06:46:15 51°14.344 2°55.109 -999 307 9.9 99950 95
2006-03-30 06:46:20 51°14.353 2°55.093 -999 228 9.9 99950 95
2006-03-30 06:46:25 51°14.362 2°55.078 -999 304 9.9 99950 95
2006-03-30 06:46:30 51°14.372 2°55.063 -999 230 9.9 99950 95
2006-03-30 06:46:35 51°14.381 2°55.049 -999 306 9.9 99950 95
2006-03-30 06:46:40 51°14.391 2°55.035 -999 306 9.8 99950 95
2006-03-30 06:46:45 51°14.402 2°55.021 -999 302 9.8 99950 95
2006-03-30 06:46:50 51°14.413 2°55.007 -999 306 9.8 99920 95
2006-03-30 06:46:55 51°14.424 2°54.993 -999 303 9.8 99920 95
2006-03-30 06:47:00 51°14.436 2°54.98 -999 296 9.8 99930 95
2006-03-30 06:47:05 51°14.447 2°54.964 -999 302 9.8 99930 95
2006-03-30 06:47:10 51°14.458 2°54.949 -999 299 9.7 99930 95
2006-03-30 06:47:15 51°14.47 2°54.932 -999 300 9.7 99930 95
2006-03-30 06:47:20 51°14.481 2°54.914 -999 309 9.7 99930 95
2006-03-30 06:47:25 51°14.492 2°54.896 -999 308 9.7 99930 95
2006-03-30 06:47:30 51°14.504 2°54.878 -999 303 9.7 99920 95
2006-03-30 06:47:35 51°14.516 2°54.86 -999 303 9.7 99920 95
2006-03-30 06:47:40 51°14.528 2°54.843 -999 301 9.7 99920 95
2006-03-30 06:47:45 51°14.541 2°54.827 -999 292 9.7 99920 95
2006-03-30 06:47:50 51°14.555 2°54.813 -999 290 9.7 99910 95
2006-03-30 06:47:55 51°14.57 2°54.802 -999 287 9.7 99910 95
2006-03-30 06:48:00 51°14.586 2°54.793 -999 286 9.6 99900 95
2006-03-30 06:48:05 51°14.601 2°54.784 -999 289 9.6 99900 95
2006-03-30 06:48:10 51°14.617 2°54.776 -999 293 9.6 99930 95
2006-03-30 06:48:15 51°14.632 2°54.767 -999 288 9.6 99930 95
2006-03-30 06:48:20 51°14.648 2°54.76 -999 286 9.6 99950 95
2006-03-30 06:48:25 51°14.664 2°54.75 -999 286 9.6 99950 95
2006-03-30 06:48:30 51°14.679 2°54.74 -999 290 9.6 99930 95
2006-03-30 06:48:35 51°14.695 2°54.729 -999 290 9.6 99930 95
2006-03-30 06:48:40 51°14.711 2°54.72 -999 288 9.6 99920 95
2006-03-30 06:48:45 51°14.726 2°54.709 -999 295 9.6 99920 95
2006-03-30 06:48:50 51°14.742 2°54.698 -999 294 9.6 99930 95
2006-03-30 06:48:55 51°14.758 2°54.689 -999 298 9.6 99930 95
2006-03-30 06:49:00 51°14.774 2°54.678 -999 292 9.6 99930 95
2006-03-30 06:49:05 51°14.789 2°54.668 -999 297 9.6 99930 95
2006-03-30 06:49:10 51°14.805 2°54.658 -999 287 9.6 99930 95
2006-03-30 06:49:15 51°14.821 2°54.648 -999 294 9.6 99930 95
2006-03-30 06:49:20 51°14.837 2°54.639 -999 289 9.5 99940 95
2006-03-30 06:49:25 51°14.853 2°54.629 -999 287 9.5 99940 95
2006-03-30 06:49:30 51°14.869 2°54.619 -999 294 9.5 99920 95
2006-03-30 06:49:35 51°14.885 2°54.609 -999 293 9.5 99920 95
2006-03-30 06:49:40 51°14.901 2°54.599 -999 286 9.5 99930 96
2006-03-30 06:49:45 51°14.916 2°54.588 -999 294 9.5 99930 96
2006-03-30 06:49:50 51°14.932 2°54.578 -999 293 9.5 99920 96
2006-03-30 06:49:55 51°14.947 2°54.567 -999 295 9.5 99920 96
2006-03-30 06:50:00 51°14.963 2°54.555 -999 294 9.5 99930 96
2006-03-30 06:50:05 51°14.978 2°54.544 -999 295 9.5 99930 96
2006-03-30 06:50:10 51°14.994 2°54.532 -999 294 9.5 99930 96
2006-03-30 06:50:15 51°15.009 2°54.52 -999 291 9.5 99930 96
2006-03-30 06:50:20 51°15.024 2°54.51 -999 286 9.5 99920 96
2006-03-30 06:50:25 51°15.039 2°54.499 -999 299 9.5 99920 96
2006-03-30 06:50:30 51°15.054 2°54.488 -999 301 9.5 99920 96
2006-03-30 06:50:35 51°15.07 2°54.477 -999 291 9.5 99920 96
2006-03-30 06:50:40 51°15.085 2°54.466 -999 284 9.5 99930 96
2006-03-30 06:50:45 51°15.1 2°54.455 -999 295 9.5 99930 96
2006-03-30 06:50:50 51°15.115 2°54.445 -999 287 9.4 99930 96
2006-03-30 06:50:55 51°15.131 2°54.435 -999 284 9.4 99930 96
2006-03-30 06:51:00 51°15.146 2°54.426 -999 282 9.4 99920 96
2006-03-30 06:51:05 51°15.162 2°54.416 -999 284 9.4 99920 96
2006-03-30 06:51:10 51°15.177 2°54.408 -999 286 9.4 99930 96
2006-03-30 06:51:15 51°15.192 2°54.397 -999 289 9.4 99930 96
2006-03-30 06:51:20 51°15.208 2°54.387 -999 289 9.4 99920 96
2006-03-30 06:51:25 51°15.224 2°54.379 -999 287 9.4 99920 96
2006-03-30 06:51:30 51°15.24 2°54.37 -999 283 9.4 99920 96
2006-03-30 06:51:35 51°15.256 2°54.363 -999 277 9.4 99920 96
2006-03-30 06:51:40 51°15.273 2°54.356 -999 276 9.4 99920 96
2006-03-30 06:51:45 51°15.289 2°54.35 -999 285 9.4 99920 96
2006-03-30 06:51:50 51°15.305 2°54.342 -999 285 9.4 99930 96
2006-03-30 06:51:55 51°15.322 2°54.336 -999 284 9.4 99930 96
2006-03-30 06:52:00 51°15.338 2°54.327 -999 282 9.4 99940 96
2006-03-30 06:52:05 51°15.354 2°54.318 -999 286 9.4 99940 96
2006-03-30 06:52:10 51°15.37 2°54.308 -999 291 9.4 99940 96
2006-03-30 06:52:15 51°15.386 2°54.296 -999 293 9.4 99940 96
2006-03-30 06:52:20 51°15.402 2°54.286 -999 289 9.4 99940 96
2006-03-30 06:52:25 51°15.418 2°54.273 -999 292 9.4 99940 96
2006-03-30 06:52:30 51°15.434 2°54.261 -999 294 9.4 99920 96
2006-03-30 06:52:35 51°15.449 2°54.249 -999 292 9.4 99920 96
2006-03-30 06:52:40 51°15.466 2°54.237 -999 292 9.4 99920 96
2006-03-30 06:52:45 51°15.481 2°54.225 -999 294 9.4 99920 96
2006-03-30 06:52:50 51°15.497 2°54.214 -999 287 9.4 99900 96
2006-03-30 06:52:55 51°15.513 2°54.201 -999 292 9.4 99900 96
2006-03-30 06:53:00 51°15.529 2°54.188 -999 291 9.3 99920 96
2006-03-30 06:53:05 51°15.545 2°54.175 -999 293 9.3 99920 96
2006-03-30 06:53:10 51°15.561 2°54.161 -999 289 9.3 99930 96
2006-03-30 06:53:15 51°15.577 2°54.148 -999 288 9.3 99930 96
2006-03-30 06:53:20 51°15.592 2°54.134 -999 297 9.3 99910 96
2006-03-30 06:53:25 51°15.608 2°54.12 -999 295 9.3 99910 96
2006-03-30 06:53:30 51°15.624 2°54.106 -999 295 9.3 99910 96
2006-03-30 06:53:35 51°15.64 2°54.094 -999 289 9.3 99910 96
2006-03-30 06:53:40 51°15.657 2°54.08 -999 285 9.3 99910 96
2006-03-30 06:53:45 51°15.673 2°54.068 -999 287 9.3 99910 96
2006-03-30 06:53:50 51°15.689 2°54.056 -999 297 9.3 99910 96
2006-03-30 06:53:55 51°15.706 2°54.045 -999 284 9.3 99910 96
2006-03-30 06:54:00 51°15.722 2°54.032 -999 294 9.3 99920 96
2006-03-30 06:54:05 51°15.738 2°54.02 -999 295 9.3 99920 96
2006-03-30 06:54:10 51°15.755 2°54.009 -999 284 9.3 99900 96
2006-03-30 06:54:15 51°15.771 2°53.994 -999 292 9.3 99900 96
2006-03-30 06:54:20 51°15.786 2°53.98 -999 288 9.3 99910 96
2006-03-30 06:54:25 51°15.802 2°53.967 -999 288 9.3 99910 96
2006-03-30 06:54:30 51°15.818 2°53.953 -999 288 9.3 99910 96
2006-03-30 06:54:35 51°15.833 2°53.94 -999 288 9.3 99910 96
2006-03-30 06:54:40 51°15.849 2°53.925 -999 287 9.3 99890 96
2006-03-30 06:54:45 51°15.866 2°53.911 -999 281 9.3 99890 96
2006-03-30 06:54:50 51°15.881 2°53.898 -999 290 9.3 99910 96
2006-03-30 06:54:55 51°15.897 2°53.886 -999 290 9.3 99910 96
2006-03-30 06:55:00 51°15.913 2°53.872 -999 288 9.3 99900 96
2006-03-30 06:55:05 51°15.929 2°53.859 -999 286 9.3 99900 96
2006-03-30 06:55:10 51°15.945 2°53.844 -999 293 9.3 99900 96
2006-03-30 06:55:15 51°15.96 2°53.832 -999 286 9.3 99900 96
2006-03-30 06:55:20 51°15.977 2°53.818 -999 287 9.3 99900 96
2006-03-30 06:55:25 51°15.992 2°53.805 -999 276 9.3 99900 96
2006-03-30 06:55:30 51°16.008 2°53.792 -999 290 9.3 99900 96
2006-03-30 06:55:35 51°16.024 2°53.778 -999 290 9.3 99900 96
2006-03-30 06:55:40 51°16.04 2°53.766 -999 288 9.3 99920 96
2006-03-30 06:55:46 51°16.059 2°53.75 -999 289 9.3 99920 96
2006-03-30 06:55:50 51°16.071 2°53.739 -999 290 9.2 99910 96
2006-03-30 06:55:55 51°16.088 2°53.726 -999 284 9.2 99910 96
2006-03-30 06:56:00 51°16.103 2°53.711 -999 284 9.2 99900 96
2006-03-30 06:56:05 51°16.119 2°53.697 -999 287 9.2 99900 96
2006-03-30 06:56:10 51°16.134 2°53.684 -999 287 9.2 99890 97
2006-03-30 06:56:15 51°16.15 2°53.669 -999 286 9.2 99890 97
2006-03-30 06:56:20 51°16.166 2°53.655 -999 293 9.2 99910 97
2006-03-30 06:56:25 51°16.181 2°53.641 -999 289 9.2 99910 97
2006-03-30 06:56:30 51°16.197 2°53.627 -999 290 9.2 99910 97
2006-03-30 06:56:35 51°16.213 2°53.612 -999 290 9.2 99910 97
2006-03-30 06:56:40 51°16.228 2°53.597 -999 294 9.3 99890 97
2006-03-30 06:56:45 51°16.244 2°53.583 -999 295 9.3 99890 97
2006-03-30 06:56:50 51°16.259 2°53.568 -999 293 9.3 99900 97
2006-03-30 06:56:55 51°16.275 2°53.553 -999 285 9.3 99900 97
2006-03-30 06:57:00 51°16.29 2°53.538 -999 292 9.2 99890 97
2006-03-30 06:57:05 51°16.306 2°53.524 -999 294 9.2 99890 97
2006-03-30 06:57:10 51°16.321 2°53.508 -999 288 9.2 99900 97
2006-03-30 06:57:15 51°16.337 2°53.495 -999 290 9.2 99900 97
2006-03-30 06:57:20 51°16.353 2°53.481 -999 292 9.3 99900 97
2006-03-30 06:57:25 51°16.368 2°53.466 -999 289 9.3 99900 97
2006-03-30 06:57:30 51°16.383 2°53.451 -999 292 9.2 99900 97
2006-03-30 06:57:35 51°16.398 2°53.435 -999 295 9.2 99900 97
2006-03-30 06:57:40 51°16.414 2°53.418 -999 297 9.2 99910 97
2006-03-30 06:57:45 51°16.428 2°53.403 -999 295 9.2 99910 97
2006-03-30 06:57:50 51°16.444 2°53.386 -999 291 9.2 99890 97
2006-03-30 06:57:55 51°16.458 2°53.371 -999 294 9.2 99890 97
2006-03-30 06:58:00 51°16.473 2°53.354 -999 293 9.2 99900 97
2006-03-30 06:58:05 51°16.489 2°53.338 -999 286 9.2 99900 97
2006-03-30 06:58:10 51°16.504 2°53.324 -999 290 9.2 99900 97
2006-03-30 06:58:15 51°16.518 2°53.307 -999 290 9.2 99900 97
2006-03-30 06:58:20 51°16.533 2°53.291 -999 290 9.2 99900 97
2006-03-30 06:58:25 51°16.548 2°53.275 -999 284 9.2 99900 97
2006-03-30 06:58:30 51°16.563 2°53.259 -999 300 9.2 99900 97
2006-03-30 06:58:35 51°16.578 2°53.243 -999 295 9.2 99900 97
2006-03-30 06:58:40 51°16.593 2°53.226 -999 293 9.2 99890 97
2006-03-30 06:58:45 51°16.609 2°53.211 -999 296 9.2 99890 97
2006-03-30 06:58:50 51°16.624 2°53.195 -999 296 9.2 99890 97
2006-03-30 06:58:55 51°16.639 2°53.18 -999 296 9.2 99890 97
2006-03-30 06:59:00 51°16.654 2°53.165 -999 285 9.2 99890 97
2006-03-30 06:59:05 51°16.67 2°53.15 -999 292 9.2 99890 97
2006-03-30 06:59:10 51°16.684 2°53.133 -999 291 9.1 99890 97
2006-03-30 06:59:15 51°16.699 2°53.118 -999 290 9.1 99890 97
2006-03-30 06:59:20 51°16.714 2°53.102 -999 295 9.1 99890 97
2006-03-30 06:59:25 51°16.729 2°53.086 -999 296 9.1 99890 97
2006-03-30 06:59:30 51°16.745 2°53.071 -999 300 9.2 99870 97
2006-03-30 06:59:35 51°16.76 2°53.056 -999 291 9.2 99870 97
2006-03-30 06:59:40 51°16.775 2°53.04 -999 301 9.2 99890 97
2006-03-30 06:59:45 51°16.79 2°53.025 -999 297 9.2 99890 97
2006-03-30 06:59:50 51°16.805 2°53.01 -999 291 9.2 99900 97
2006-03-30 06:59:55 51°16.82 2°52.995 -999 299 9.2 99900 97
2006-03-30 07:00:00 51°16.835 2°52.981 -999 291 9.2 99890 97
2006-03-30 07:00:05 51°16.849 2°52.967 -999 292 9.2 99890 97
2006-03-30 07:00:10 51°16.863 2°52.953 -999 291 9.2 99900 97
2006-03-30 07:00:15 51°16.877 2°52.939 -999 295 9.2 99900 97
2006-03-30 07:00:20 51°16.891 2°52.925 -999 294 9.2 99900 97
2006-03-30 07:00:25 51°16.905 2°52.911 -999 289 9.2 99900 97
2006-03-30 07:00:30 51°16.918 2°52.896 -999 300 9.2 99900 97
2006-03-30 07:00:35 51°16.932 2°52.881 -999 296 9.2 99900 97
2006-03-30 07:00:40 51°16.946 2°52.866 -999 301 9.2 99900 97
2006-03-30 07:00:44 51°16.958 2°52.854 -999 286 9.2 99900 97
2006-03-30 07:00:50 51°16.975 2°52.836 -999 289 9.2 99890 97
2006-03-30 07:00:55 51°16.99 2°52.822 -999 286 9.2 99890 97
2006-03-30 07:01:00 51°17.006 2°52.809 -999 292 9.2 99890 97
2006-03-30 07:01:05 51°17.021 2°52.795 -999 289 9.2 99890 97
2006-03-30 07:01:10 51°17.037 2°52.783 -999 283 9.2 99900 97
2006-03-30 07:01:15 51°17.053 2°52.771 -999 283 9.2 99900 97
2006-03-30 07:01:20 51°17.069 2°52.759 -999 280 9.2 99880 97
2006-03-30 07:01:25 51°17.086 2°52.748 -999 285 9.2 99880 97
2006-03-30 07:01:30 51°17.102 2°52.736 -999 293 9.2 99910 97
2006-03-30 07:01:35 51°17.118 2°52.727 -999 287 9.2 99910 97
2006-03-30 07:01:40 51°17.135 2°52.716 -999 281 9.1 99890 97
2006-03-30 07:01:45 51°17.151 2°52.704 -999 282 9.1 99890 97
2006-03-30 07:01:50 51°17.167 2°52.693 -999 283 9.1 99910 97
2006-03-30 07:01:55 51°17.183 2°52.681 -999 294 9.1 99910 97
2006-03-30 07:02:00 51°17.199 2°52.669 -999 287 9.2 99900 97
2006-03-30 07:02:05 51°17.215 2°52.657 -999 293 9.2 99900 97
2006-03-30 07:02:10 51°17.23 2°52.647 -999 289 9.1 99900 97
2006-03-30 07:02:15 51°17.246 2°52.634 -999 288 9.1 99900 97
2006-03-30 07:02:20 51°17.262 2°52.621 -999 288 9.1 99900 97
2006-03-30 07:02:25 51°17.278 2°52.61 -999 290 9.1 99900 97
2006-03-30 07:02:30 51°17.294 2°52.598 -999 294 9.2 99910 97
2006-03-30 07:02:35 51°17.31 2°52.586 -999 287 9.2 99910 97
2006-03-30 07:02:40 51°17.326 2°52.576 -999 285 9.1 99880 97
2006-03-30 07:02:45 51°17.342 2°52.564 -999 288 9.1 99880 97
2006-03-30 07:02:50 51°17.359 2°52.553 -999 286 9.1 99890 97
2006-03-30 07:02:55 51°17.375 2°52.542 -999 282 9.1 99890 97
2006-03-30 07:03:00 51°17.391 2°52.531 -999 285 9.2 99890 97
2006-03-30 07:03:05 51°17.408 2°52.52 -999 284 9.2 99890 97
2006-03-30 07:03:10 51°17.424 2°52.51 -999 289 9.1 99890 97
2006-03-30 07:03:15 51°17.441 2°52.499 -999 293 9.1 99890 97
2006-03-30 07:03:20 51°17.457 2°52.488 -999 284 9.2 99920 97
2006-03-30 07:03:25 51°17.474 2°52.478 -999 279 9.2 99920 97
2006-03-30 07:03:30 51°17.491 2°52.468 -999 286 9.2 99900 97
2006-03-30 07:03:35 51°17.508 2°52.458 -999 282 9.2 99900 97
2006-03-30 07:03:40 51°17.524 2°52.448 -999 284 9.2 99900 97
2006-03-30 07:03:45 51°17.541 2°52.438 -999 277 9.2 99900 97
2006-03-30 07:03:50 51°17.558 2°52.43 -999 280 9.1 99910 97
2006-03-30 07:03:55 51°17.574 2°52.419 -999 281 9.1 99910 97
2006-03-30 07:04:00 51°17.591 2°52.412 -999 281 9.1 99900 97
2006-03-30 07:04:05 51°17.607 2°52.402 -999 288 9.1 99900 97
2006-03-30 07:04:10 51°17.624 2°52.395 -999 282 9.1 99900 97
2006-03-30 07:04:15 51°17.641 2°52.387 -999 281 9.1 99900 97
2006-03-30 07:04:20 51°17.658 2°52.382 -999 281 9.1 99910 97
2006-03-30 07:04:25 51°17.675 2°52.373 -999 284 9.1 99910 97
2006-03-30 07:04:30 51°17.692 2°52.372 -999 282 9.1 99910 97
2006-03-30 07:04:35 51°17.709 2°52.368 -999 267 9.1 99910 97
2006-03-30 07:04:40 51°17.727 2°52.363 -999 268 9.1 99920 97
2006-03-30 07:04:45 51°17.744 2°52.359 -999 269 9.1 99920 97
2006-03-30 07:04:50 51°17.761 2°52.356 -999 272 9.1 99900 97
2006-03-30 07:04:55 51°17.778 2°52.352 -999 279 9.1 99900 97
2006-03-30 07:05:00 51°17.796 2°52.348 -999 280 9.1 99910 97
2006-03-30 07:05:05 51°17.813 2°52.346 -999 266 9.1 99910 97
2006-03-30 07:05:10 51°17.83 2°52.344 -999 275 9.1 99920 97
2006-03-30 07:05:15 51°17.848 2°52.341 -999 265 9.1 99920 97
2006-03-30 07:05:20 51°17.865 2°52.341 -999 266 9.1 99910 97
2006-03-30 07:05:25 51°17.882 2°52.34 -999 271 9.1 99910 97
2006-03-30 07:05:30 51°17.9 2°52.338 -999 265 9.1 99930 97
2006-03-30 07:05:35 51°17.918 2°52.339 -999 280 9.1 99930 97
2006-03-30 07:05:40 51°17.935 2°52.335 -999 274 9.2 99920 97
2006-03-30 07:05:45 51°17.953 2°52.334 -999 265 9.2 99920 97
2006-03-30 07:05:50 51°17.97 2°52.331 -999 266 9.1 99920 97
2006-03-30 07:05:55 51°17.988 2°52.33 -999 267 9.1 99920 97
2006-03-30 07:06:00 51°18.005 2°52.327 -999 269 9.1 99940 97
2006-03-30 07:06:05 51°18.022 2°52.328 -999 260 9.1 99940 97
2006-03-30 07:06:10 51°18.04 2°52.324 -999 263 9 99930 97
2006-03-30 07:06:15 51°18.057 2°52.326 -999 268 9 99930 97
2006-03-30 07:06:20 51°18.075 2°52.323 -999 278 9 99930 97
2006-03-30 07:06:25 51°18.092 2°52.325 -999 273 9 99930 97
2006-03-30 07:06:30 51°18.11 2°52.323 -999 264 9 99920 97
2006-03-30 07:06:35 51°18.127 2°52.324 -999 270 9 99920 97
2006-03-30 07:06:40 51°18.144 2°52.324 -999 270 9 99940 97
2006-03-30 07:06:45 51°18.162 2°52.323 -999 261 9 99940 97
2006-03-30 07:06:50 51°18.179 2°52.32 -999 260 9 99930 97
2006-03-30 07:06:55 51°18.197 2°52.323 -999 267 9 99930 97
2006-03-30 07:07:00 51°18.215 2°52.319 -999 271 9 99920 97
2006-03-30 07:07:05 51°18.232 2°52.32 -999 263 9 99920 97
2006-03-30 07:07:10 51°18.25 2°52.32 -999 267 9 99920 98
2006-03-30 07:07:15 51°18.267 2°52.32 -999 261 9 99920 98
2006-03-30 07:07:20 51°18.285 2°52.321 -999 265 9.1 99940 98
2006-03-30 07:07:25 51°18.302 2°52.322 -999 266 9.1 99940 98
2006-03-30 07:07:30 51°18.32 2°52.32 -999 266 9 99930 98
2006-03-30 07:07:35 51°18.337 2°52.32 -999 266 9 99930 98
2006-03-30 07:07:40 51°18.355 2°52.319 -999 275 9 99930 98
2006-03-30 07:07:45 51°18.372 2°52.319 -999 270 9 99930 98
2006-03-30 07:07:50 51°18.39 2°52.317 -999 267 9 99930 98
2006-03-30 07:07:55 51°18.407 2°52.318 -999 277 9 99930 98
2006-03-30 07:08:00 51°18.425 2°52.314 -999 262 9 99940 98
2006-03-30 07:08:05 51°18.442 2°52.314 -999 263 9 99940 98
2006-03-30 07:08:10 51°18.459 2°52.314 -999 258 9 99930 98
2006-03-30 07:08:15 51°18.477 2°52.314 -999 260 9 99930 98
2006-03-30 07:08:20 51°18.495 2°52.311 -999 273 9 99930 98
2006-03-30 07:08:25 51°18.513 2°52.311 -999 271 9 99930 98
2006-03-30 07:08:30 51°18.53 2°52.309 -999 269 9 99940 98
2006-03-30 07:08:35 51°18.548 2°52.307 -999 276 9 99940 98
2006-03-30 07:08:40 51°18.565 2°52.305 -999 275 9 99920 98
2006-03-30 07:08:45 51°18.583 2°52.305 -999 269 9 99920 98
2006-03-30 07:08:50 51°18.6 2°52.304 -999 266 9 99920 98
2006-03-30 07:08:55 51°18.618 2°52.301 -999 266 9 99920 98
2006-03-30 07:09:00 51°18.636 2°52.301 -999 268 9 99920 98
2006-03-30 07:09:05 51°18.653 2°52.298 -999 268 9 99920 98
2006-03-30 07:09:10 51°18.671 2°52.299 -999 269 9 99920 98
2006-03-30 07:09:15 51°18.689 2°52.296 -999 268 9 99920 98
2006-03-30 07:09:20 51°18.706 2°52.294 -999 267 8.9 99920 98
2006-03-30 07:09:25 51°18.724 2°52.292 -999 261 8.9 99920 98
2006-03-30 07:09:30 51°18.742 2°52.291 -999 269 8.9 99920 98
2006-03-30 07:09:35 51°18.76 2°52.29 -999 258 8.9 99920 98
2006-03-30 07:09:40 51°18.777 2°52.291 -999 258 8.9 99920 98
2006-03-30 07:09:45 51°18.795 2°52.29 -999 262 8.9 99920 98
2006-03-30 07:09:50 51°18.812 2°52.287 -999 266 9 99910 98
2006-03-30 07:09:55 51°18.83 2°52.287 -999 264 9 99910 98
2006-03-30 07:10:00 51°18.848 2°52.284 -999 272 8.9 99930 98
2006-03-30 07:10:05 51°18.865 2°52.284 -999 263 8.9 99930 98
2006-03-30 07:10:10 51°18.883 2°52.282 -999 267 9 99920 98
2006-03-30 07:10:16 51°18.904 2°52.281 -999 261 9 99920 98
2006-03-30 07:10:20 51°18.918 2°52.281 -999 266 9 99920 98
2006-03-30 07:10:25 51°18.936 2°52.28 -999 257 9 99920 98
2006-03-30 07:10:30 51°18.953 2°52.28 -999 265 9 99930 98
2006-03-30 07:10:35 51°18.971 2°52.277 -999 263 9 99930 98
2006-03-30 07:10:40 51°18.988 2°52.278 -999 268 9 99920 98
2006-03-30 07:10:45 51°19.006 2°52.277 -999 278 9 99920 98
2006-03-30 07:10:50 51°19.024 2°52.275 -999 287 9 99910 98
2006-03-30 07:10:55 51°19.041 2°52.271 -999 265 9 99910 98
2006-03-30 07:11:00 51°19.059 2°52.269 -999 271 9 99930 98
2006-03-30 07:11:05 51°19.077 2°52.267 -999 263 9 99930 98
2006-03-30 07:11:10 51°19.094 2°52.266 -999 265 9 99920 98
2006-03-30 07:11:15 51°19.112 2°52.264 -999 278 9 99920 98
2006-03-30 07:11:20 51°19.13 2°52.263 -999 262 9 99920 98
2006-03-30 07:11:25 51°19.147 2°52.26 -999 267 9 99920 98
2006-03-30 07:11:30 51°19.165 2°52.26 -999 262 9 99920 98
2006-03-30 07:11:35 51°19.182 2°52.257 -999 274 9 99920 98
2006-03-30 07:11:40 51°19.2 2°52.256 -999 259 9 99920 98
2006-03-30 07:11:45 51°19.218 2°52.255 -999 264 9 99920 98
2006-03-30 07:11:50 51°19.235 2°52.253 -999 260 9 99930 98
2006-03-30 07:11:55 51°19.253 2°52.254 -999 266 9 99930 98
2006-03-30 07:12:00 51°19.271 2°52.251 -999 269 9 99910 98
2006-03-30 07:12:05 51°19.288 2°52.252 -999 261 9 99910 98
2006-03-30 07:12:10 51°19.306 2°52.247 -999 272 9 99920 98
2006-03-30 07:12:15 51°19.324 2°52.248 -999 262 9 99920 98
2006-03-30 07:12:20 51°19.341 2°52.245 -999 270 9 99920 98
2006-03-30 07:12:25 51°19.359 2°52.244 -999 267 9 99920 98
2006-03-30 07:12:30 51°19.376 2°52.241 -999 275 9 99930 98
2006-03-30 07:12:35 51°19.394 2°52.24 -999 268 9 99930 98
2006-03-30 07:12:40 51°19.411 2°52.236 -999 267 9 99930 98
2006-03-30 07:12:45 51°19.429 2°52.236 -999 264 9 99930 98
2006-03-30 07:12:50 51°19.446 2°52.233 -999 263 9 99920 98
2006-03-30 07:12:55 51°19.464 2°52.233 -999 264 9 99920 98
2006-03-30 07:13:00 51°19.481 2°52.231 -999 275 9 99920 98
2006-03-30 07:13:05 51°19.499 2°52.23 -999 272 9 99920 98
2006-03-30 07:13:10 51°19.516 2°52.228 -999 258 9 99920 98
2006-03-30 07:13:15 51°19.534 2°52.227 -999 262 9 99920 98
2006-03-30 07:13:20 51°19.551 2°52.226 -999 259 9 99920 98
2006-03-30 07:13:26 51°19.572 2°52.227 -999 259 9 99920 98
2006-03-30 07:13:30 51°19.586 2°52.224 -999 276 9 99920 98
2006-03-30 07:13:35 51°19.603 2°52.224 -999 263 9 99920 98
2006-03-30 07:13:40 51°19.62 2°52.222 -999 270 9 99920 98
2006-03-30 07:13:45 51°19.638 2°52.221 -999 261 9 99920 98
2006-03-30 07:13:50 51°19.655 2°52.219 -999 267 9 99930 98
2006-03-30 07:13:55 51°19.673 2°52.217 -999 265 9 99930 98
2006-03-30 07:14:00 51°19.69 2°52.216 -999 263 9 99920 98
2006-03-30 07:14:04 51°19.704 2°52.216 -999 269 9 99920 98
2006-03-30 07:14:10 51°19.724 2°52.212 -999 263 9 99920 98
2006-03-30 07:14:15 51°19.742 2°52.209 -999 253 9 99920 98
2006-03-30 07:14:20 51°19.759 2°52.207 -999 268 9 99920 98
2006-03-30 07:14:25 51°19.776 2°52.205 -999 259 9 99920 98
2006-03-30 07:14:30 51°19.794 2°52.204 -999 261 9 99910 98
2006-03-30 07:14:35 51°19.811 2°52.204 -999 264 9 99910 98
2006-03-30 07:14:40 51°19.829 2°52.201 -999 261 9 99900 98
2006-03-30 07:14:45 51°19.846 2°52.199 -999 261 9 99900 98
2006-03-30 07:14:50 51°19.863 2°52.197 -999 261 8.9 99900 98
2006-03-30 07:14:55 51°19.881 2°52.195 -999 266 8.9 99900 98
2006-03-30 07:15:00 51°19.898 2°52.191 -999 262 8.9 99910 98
2006-03-30 07:15:05 51°19.916 2°52.191 -999 261 8.9 99910 98
2006-03-30 07:15:10 51°19.934 2°52.19 -999 262 9 99910 98
2006-03-30 07:15:15 51°19.951 2°52.186 -999 268 9 99910 98
2006-03-30 07:15:20 51°19.969 2°52.186 -999 265 9 99900 98
2006-03-30 07:15:25 51°19.987 2°52.183 -999 256 9 99900 98
2006-03-30 07:15:30 51°20.005 2°52.182 -999 264 9 99910 98
2006-03-30 07:15:35 51°20.023 2°52.184 -999 267 9 99910 98
2006-03-30 07:15:40 51°20.04 2°52.182 -999 263 8.9 99900 98
2006-03-30 07:15:45 51°20.058 2°52.18 -999 264 8.9 99900 98
2006-03-30 07:15:50 51°20.076 2°52.181 -999 259 9 99900 98
2006-03-30 07:15:55 51°20.093 2°52.181 -999 262 9 99900 98
2006-03-30 07:16:00 51°20.111 2°52.181 -999 264 9 99910 98
2006-03-30 07:16:05 51°20.128 2°52.18 -999 256 9 99910 98
2006-03-30 07:16:10 51°20.145 2°52.182 -999 268 8.9 99900 98
2006-03-30 07:16:15 51°20.163 2°52.182 -999 261 8.9 99900 98
2006-03-30 07:16:20 51°20.18 2°52.183 -999 265 8.9 99920 98
2006-03-30 07:16:25 51°20.198 2°52.181 -999 261 8.9 99920 98
2006-03-30 07:16:30 51°20.214 2°52.182 -999 259 8.9 99910 98
2006-03-30 07:16:35 51°20.232 2°52.183 -999 257 8.9 99910 98
2006-03-30 07:16:40 51°20.249 2°52.183 -999 254 8.9 99910 98
2006-03-30 07:16:45 51°20.267 2°52.185 -999 262 8.9 99910 98
2006-03-30 07:16:50 51°20.284 2°52.183 -999 258 8.9 99900 98
2006-03-30 07:16:55 51°20.301 2°52.183 -999 263 8.9 99900 98
2006-03-30 07:17:00 51°20.319 2°52.182 -999 253 8.9 99910 98
2006-03-30 07:17:05 51°20.336 2°52.183 -999 255 8.9 99910 98
2006-03-30 07:17:10 51°20.354 2°52.183 -999 266 8.9 99910 98
2006-03-30 07:17:15 51°20.371 2°52.185 -999 257 8.9 99910 98
2006-03-30 07:17:20 51°20.388 2°52.186 -999 255 8.9 99910 98
2006-03-30 07:17:25 51°20.406 2°52.186 -999 254 8.9 99910 98
2006-03-30 07:17:30 51°20.424 2°52.184 -999 271 8.9 99910 98
2006-03-30 07:17:35 51°20.441 2°52.184 -999 262 8.9 99910 98
2006-03-30 07:17:40 51°20.458 2°52.182 -999 265 8.9 99920 98
2006-03-30 07:17:45 51°20.477 2°52.18 -999 261 8.9 99920 98
2006-03-30 07:17:50 51°20.494 2°52.179 -999 260 8.9 99910 98
2006-03-30 07:17:55 51°20.511 2°52.179 -999 262 8.9 99910 98
2006-03-30 07:18:00 51°20.529 2°52.179 -999 249 8.9 99910 98
2006-03-30 07:18:05 51°20.546 2°52.177 -999 257 8.9 99910 98
2006-03-30 07:18:10 51°20.563 2°52.178 -999 262 8.9 99910 98
2006-03-30 07:18:15 51°20.581 2°52.178 -999 261 8.9 99910 98
2006-03-30 07:18:20 51°20.598 2°52.177 -999 268 8.9 99910 98
2006-03-30 07:18:25 51°20.616 2°52.176 -999 261 8.9 99910 98
2006-03-30 07:18:30 51°20.633 2°52.177 -999 256 8.9 99910 98
2006-03-30 07:18:35 51°20.651 2°52.177 -999 250 8.9 99910 98
2006-03-30 07:18:40 51°20.668 2°52.174 -999 263 8.9 99890 98
2006-03-30 07:18:45 51°20.685 2°52.176 -999 258 8.9 99890 98
2006-03-30 07:18:50 51°20.702 2°52.176 -999 256 8.9 99910 98
2006-03-30 07:18:55 51°20.72 2°52.178 -999 263 8.9 99910 98
2006-03-30 07:19:00 51°20.737 2°52.178 -999 260 8.9 99910 98
2006-03-30 07:19:05 51°20.754 2°52.178 -999 259 8.9 99910 98
2006-03-30 07:19:10 51°20.772 2°52.179 -999 259 8.9 99910 98
2006-03-30 07:19:15 51°20.789 2°52.18 -999 259 8.9 99910 98
2006-03-30 07:19:20 51°20.806 2°52.182 -999 259 8.9 99910 98
2006-03-30 07:19:25 51°20.824 2°52.182 -999 258 8.9 99910 98
2006-03-30 07:19:31 51°20.845 2°52.182 -999 259 8.9 99910 98
2006-03-30 07:19:35 51°20.859 2°52.182 -999 255 8.9 99910 98
2006-03-30 07:19:40 51°20.877 2°52.181 -999 262 8.9 99900 98
2006-03-30 07:19:45 51°20.894 2°52.185 -999 249 8.9 99900 98
2006-03-30 07:19:50 51°20.912 2°52.184 -999 257 8.9 99910 98
2006-03-30 07:19:55 51°20.929 2°52.187 -999 259 8.9 99910 98
2006-03-30 07:20:00 51°20.946 2°52.187 -999 258 8.9 99900 98
2006-03-30 07:20:05 51°20.963 2°52.189 -999 254 8.9 99900 98
2006-03-30 07:20:10 51°20.98 2°52.191 -999 246 8.9 99920 98
2006-03-30 07:20:15 51°20.998 2°52.195 -999 258 8.9 99920 98
2006-03-30 07:20:20 51°21.015 2°52.196 -999 253 8.9 99900 98
2006-03-30 07:20:25 51°21.032 2°52.2 -999 257 8.9 99900 98
2006-03-30 07:20:30 51°21.049 2°52.204 -999 250 8.9 99900 98
2006-03-30 07:20:35 51°21.065 2°52.211 -999 254 8.9 99900 98
2006-03-30 07:20:40 51°21.083 2°52.214 -999 250 8.9 99910 98
2006-03-30 07:20:45 51°21.1 2°52.219 -999 256 8.9 99910 98
2006-03-30 07:20:50 51°21.117 2°52.223 -999 256 8.9 99910 98
2006-03-30 07:20:55 51°21.133 2°52.228 -999 251 8.9 99910 98
2006-03-30 07:21:00 51°21.15 2°52.233 -999 246 8.9 99910 98
2006-03-30 07:21:05 51°21.167 2°52.236 -999 259 8.9 99910 98
2006-03-30 07:21:10 51°21.184 2°52.242 -999 255 8.9 99910 98
2006-03-30 07:21:15 51°21.201 2°52.243 -999 237 8.9 99910 98
2006-03-30 07:21:20 51°21.218 2°52.25 -999 235 8.9 99920 98
2006-03-30 07:21:25 51°21.235 2°52.253 -999 256 8.9 99920 98
2006-03-30 07:21:30 51°21.252 2°52.257 -999 252 8.9 99910 98
2006-03-30 07:21:35 51°21.268 2°52.264 -999 257 8.9 99910 98
2006-03-30 07:21:40 51°21.285 2°52.269 -999 251 8.9 99900 98
2006-03-30 07:21:45 51°21.301 2°52.277 -999 255 8.9 99900 98
2006-03-30 07:21:50 51°21.319 2°52.282 -999 257 8.9 99910 98
2006-03-30 07:21:55 51°21.336 2°52.288 -999 248 8.9 99910 98
2006-03-30 07:22:00 51°21.352 2°52.295 -999 250 8.9 99920 98
2006-03-30 07:22:05 51°21.368 2°52.301 -999 254 8.9 99920 98
2006-03-30 07:22:10 51°21.385 2°52.308 -999 253 8.9 99930 98
2006-03-30 07:22:15 51°21.401 2°52.314 -999 261 8.9 99930 98
2006-03-30 07:22:20 51°21.418 2°52.32 -999 261 8.9 99920 98
2006-03-30 07:22:25 51°21.435 2°52.327 -999 251 8.9 99920 98
2006-03-30 07:22:30 51°21.452 2°52.332 -999 261 8.9 99910 98
2006-03-30 07:22:35 51°21.469 2°52.34 -999 257 8.9 99910 98
2006-03-30 07:22:40 51°21.486 2°52.344 -999 238 8.9 99920 98
2006-03-30 07:22:45 51°21.503 2°52.351 -999 246 8.9 99920 98
2006-03-30 07:22:50 51°21.52 2°52.356 -999 260 8.9 99930 98
2006-03-30 07:22:55 51°21.537 2°52.362 -999 245 8.9 99930 98
2006-03-30 07:23:00 51°21.554 2°52.366 -999 251 8.9 99920 98
2006-03-30 07:23:05 51°21.57 2°52.374 -999 245 8.9 99920 98
2006-03-30 07:23:10 51°21.587 2°52.381 -999 251 8.9 99910 98
2006-03-30 07:23:15 51°21.603 2°52.387 -999 259 8.9 99910 98
2006-03-30 07:23:20 51°21.619 2°52.398 -999 245 8.9 99920 98
2006-03-30 07:23:25 51°21.636 2°52.402 -999 247 8.9 99920 98
2006-03-30 07:23:30 51°21.652 2°52.413 -999 248 8.8 99920 98
2006-03-30 07:23:35 51°21.668 2°52.419 -999 238 8.8 99920 98
2006-03-30 07:23:40 51°21.685 2°52.427 -999 246 8.8 99920 98
2006-03-30 07:23:45 51°21.702 2°52.435 -999 236 8.8 99920 98
2006-03-30 07:23:50 51°21.718 2°52.444 -999 255 8.8 99910 98
2006-03-30 07:23:55 51°21.735 2°52.449 -999 270 8.8 99910 98
2006-03-30 07:24:00 51°21.751 2°52.457 -999 246 8.8 99920 98
2006-03-30 07:24:05 51°21.767 2°52.464 -999 254 8.8 99920 98
2006-03-30 07:24:10 51°21.783 2°52.471 -999 257 8.8 99930 98
2006-03-30 07:24:15 51°21.799 2°52.48 -999 255 8.8 99930 98
2006-03-30 07:24:20 51°21.816 2°52.487 -999 242 8.8 99920 98
2006-03-30 07:24:26 51°21.836 2°52.496 -999 242 8.8 99920 98
2006-03-30 07:24:30 51°21.848 2°52.503 -999 250 8.8 99930 98
2006-03-30 07:24:35 51°21.864 2°52.511 -999 250 8.8 99930 98
2006-03-30 07:24:40 51°21.88 2°52.519 -999 255 8.8 99920 98
2006-03-30 07:24:45 51°21.896 2°52.526 -999 245 8.8 99920 98
2006-03-30 07:24:50 51°21.912 2°52.536 -999 234 8.8 99930 98
2006-03-30 07:24:55 51°21.929 2°52.542 -999 251 8.8 99930 98
2006-03-30 07:25:00 51°21.945 2°52.552 -999 246 8.8 99920 98
2006-03-30 07:25:06 51°21.965 2°52.559 -999 246 8.8 99920 98
2006-03-30 07:25:10 51°21.978 2°52.568 -999 248 8.7 99920 98
2006-03-30 07:25:15 51°21.994 2°52.574 -999 243 8.7 99920 98
2006-03-30 07:25:20 51°22.011 2°52.585 -999 249 8.7 99920 98
2006-03-30 07:25:25 51°22.029 2°52.589 -999 246 8.7 99920 98
2006-03-30 07:25:30 51°22.044 2°52.6 -999 250 8.7 99920 98
2006-03-30 07:25:35 51°22.061 2°52.607 -999 257 8.7 99920 98
2006-03-30 07:25:40 51°22.078 2°52.613 -999 259 8.7 99930 98
2006-03-30 07:25:45 51°22.095 2°52.621 -999 255 8.7 99930 98
2006-03-30 07:25:50 51°22.111 2°52.628 -999 260 8.7 99910 98
2006-03-30 07:25:55 51°22.128 2°52.636 -999 264 8.7 99910 98
2006-03-30 07:26:00 51°22.145 2°52.644 -999 252 8.7 99930 98
2006-03-30 07:26:05 51°22.161 2°52.651 -999 236 8.7 99930 98
2006-03-30 07:26:10 51°22.177 2°52.66 -999 258 8.7 99930 98
2006-03-30 07:26:15 51°22.194 2°52.666 -999 245 8.7 99930 98
2006-03-30 07:26:20 51°22.211 2°52.675 -999 248 8.7 99920 98
2006-03-30 07:26:25 51°22.226 2°52.685 -999 244 8.7 99920 98
2006-03-30 07:26:30 51°22.243 2°52.692 -999 248 8.7 99930 98
2006-03-30 07:26:35 51°22.26 2°52.702 -999 247 8.7 99930 98
2006-03-30 07:26:40 51°22.276 2°52.708 -999 249 8.7 99920 98
2006-03-30 07:26:45 51°22.292 2°52.718 -999 254 8.7 99920 98
2006-03-30 07:26:50 51°22.31 2°52.726 -999 248 8.7 99930 98
2006-03-30 07:26:55 51°22.327 2°52.732 -999 250 8.7 99930 98
2006-03-30 07:27:00 51°22.344 2°52.737 -999 255 8.7 99930 98
2006-03-30 07:27:05 51°22.361 2°52.746 -999 253 8.7 99930 98
2006-03-30 07:27:10 51°22.377 2°52.751 -999 255 8.7 99920 98
2006-03-30 07:27:15 51°22.393 2°52.763 -999 244 8.7 99920 98
2006-03-30 07:27:20 51°22.411 2°52.765 -999 252 8.7 99920 98
2006-03-30 07:27:25 51°22.427 2°52.776 -999 260 8.7 99920 98
2006-03-30 07:27:30 51°22.444 2°52.781 -999 258 8.7 99930 98
2006-03-30 07:27:35 51°22.46 2°52.792 -999 253 8.7 99930 98
2006-03-30 07:27:40 51°22.477 2°52.798 -999 251 8.7 99930 98
2006-03-30 07:27:45 51°22.493 2°52.808 -999 247 8.7 99930 98
2006-03-30 07:27:50 51°22.509 2°52.816 -999 260 8.7 99940 98
2006-03-30 07:27:55 51°22.527 2°52.823 -999 266 8.7 99940 98
2006-03-30 07:28:00 51°22.543 2°52.832 -999 269 8.7 99940 98
2006-03-30 07:28:05 51°22.559 2°52.84 -999 253 8.7 99940 98
2006-03-30 07:28:10 51°22.576 2°52.848 -999 244 8.7 99930 98
2006-03-30 07:28:15 51°22.593 2°52.854 -999 239 8.7 99930 98
2006-03-30 07:28:20 51°22.609 2°52.863 -999 256 8.7 99930 98
2006-03-30 07:28:25 51°22.626 2°52.871 -999 246 8.7 99930 98
2006-03-30 07:28:30 51°22.642 2°52.88 -999 255 8.7 99920 98
2006-03-30 07:28:35 51°22.659 2°52.888 -999 235 8.7 99920 98
2006-03-30 07:28:40 51°22.675 2°52.897 -999 248 8.7 99920 98
2006-03-30 07:28:45 51°22.692 2°52.905 -999 235 8.7 99920 98
2006-03-30 07:28:50 51°22.708 2°52.913 -999 257 8.7 99930 98
2006-03-30 07:28:55 51°22.725 2°52.921 -999 252 8.7 99930 98
2006-03-30 07:29:00 51°22.742 2°52.927 -999 257 8.7 99920 98
2006-03-30 07:29:05 51°22.758 2°52.939 -999 251 8.7 99920 98
2006-03-30 07:29:10 51°22.775 2°52.944 -999 251 8.7 99930 98
2006-03-30 07:29:15 51°22.792 2°52.957 -999 241 8.7 99930 98
2006-03-30 07:29:20 51°22.809 2°52.962 -999 256 8.7 99920 98
2006-03-30 07:29:25 51°22.825 2°52.973 -999 261 8.7 99920 98
2006-03-30 07:29:30 51°22.842 2°52.978 -999 257 8.7 99940 98
2006-03-30 07:29:35 51°22.858 2°52.99 -999 257 8.7 99940 98
2006-03-30 07:29:40 51°22.875 2°52.995 -999 245 8.7 99940 98
2006-03-30 07:29:45 51°22.891 2°53.008 -999 248 8.7 99940 98
2006-03-30 07:29:50 51°22.908 2°53.013 -999 260 8.7 99930 98
2006-03-30 07:29:55 51°22.924 2°53.025 -999 253 8.7 99930 98
2006-03-30 07:30:00 51°22.941 2°53.031 -999 244 8.6 99940 98
2006-03-30 07:30:06 51°22.961 2°53.042 -999 263 8.6 99940 98
2006-03-30 07:30:10 51°22.974 2°53.048 -999 256 8.7 99940 98
2006-03-30 07:30:15 51°22.991 2°53.055 -999 248 8.7 99940 98
2006-03-30 07:30:20 51°23.007 2°53.064 -999 251 8.6 99930 98
2006-03-30 07:30:25 51°23.024 2°53.072 -999 250 8.6 99930 98
2006-03-30 07:30:30 51°23.041 2°53.08 -999 250 8.6 99930 98
2006-03-30 07:30:35 51°23.057 2°53.088 -999 253 8.6 99930 98
2006-03-30 07:30:40 51°23.074 2°53.098 -999 254 8.6 99930 98
2006-03-30 07:30:44 51°23.088 2°53.102 -999 255 8.6 99930 98
2006-03-30 07:30:50 51°23.107 2°53.113 -999 245 8.6 99930 98
2006-03-30 07:30:55 51°23.124 2°53.12 -999 241 8.6 99930 98
2006-03-30 07:31:00 51°23.141 2°53.13 -999 246 8.6 99930 98
2006-03-30 07:31:05 51°23.158 2°53.135 -999 236 8.6 99930 98
2006-03-30 07:31:10 51°23.174 2°53.147 -999 231 8.6 99930 98
2006-03-30 07:31:15 51°23.191 2°53.152 -999 255 8.6 99930 98
2006-03-30 07:31:20 51°23.208 2°53.16 -999 243 8.6 99930 98
2006-03-30 07:31:25 51°23.224 2°53.168 -999 247 8.6 99930 98
2006-03-30 07:31:30 51°23.241 2°53.175 -999 244 8.6 99920 98
2006-03-30 07:31:35 51°23.256 2°53.186 -999 258 8.6 99920 98
2006-03-30 07:31:40 51°23.274 2°53.191 -999 262 8.6 99930 98
2006-03-30 07:31:45 51°23.289 2°53.202 -999 260 8.6 99930 98
2006-03-30 07:31:50 51°23.306 2°53.206 -999 256 8.7 99930 98
2006-03-30 07:31:55 51°23.322 2°53.217 -999 262 8.7 99930 98
2006-03-30 07:32:00 51°23.338 2°53.223 -999 257 8.6 99940 98
2006-03-30 07:32:05 51°23.354 2°53.232 -999 254 8.6 99940 98
2006-03-30 07:32:10 51°23.37 2°53.237 -999 254 8.6 99930 98
2006-03-30 07:32:15 51°23.386 2°53.247 -999 257 8.6 99930 98
2006-03-30 07:32:20 51°23.403 2°53.253 -999 254 8.6 99940 98
2006-03-30 07:32:25 51°23.418 2°53.265 -999 249 8.6 99940 98
2006-03-30 07:32:30 51°23.435 2°53.269 -999 263 8.5 99920 98
2006-03-30 07:32:35 51°23.45 2°53.284 -999 255 8.5 99920 98
2006-03-30 07:32:40 51°23.468 2°53.286 -999 253 8.5 99940 98
2006-03-30 07:32:45 51°23.483 2°53.298 -999 254 8.5 99940 98
2006-03-30 07:32:50 51°23.499 2°53.303 -999 256 8.5 99940 98
2006-03-30 07:32:55 51°23.515 2°53.315 -999 262 8.5 99940 98
2006-03-30 07:33:00 51°23.532 2°53.319 -999 258 8.5 99950 98
2006-03-30 07:33:04 51°23.544 2°53.328 -999 241 8.5 99950 98
2006-03-30 07:33:10 51°23.563 2°53.335 -999 260 8.6 99940 98
2006-03-30 07:33:15 51°23.579 2°53.343 -999 243 8.6 99940 98
2006-03-30 07:33:20 51°23.595 2°53.353 -999 241 8.6 99940 98
2006-03-30 07:33:25 51°23.611 2°53.361 -999 244 8.6 99940 98
2006-03-30 07:33:30 51°23.626 2°53.37 -999 243 8.5 99940 98
2006-03-30 07:33:35 51°23.643 2°53.378 -999 258 8.5 99940 98
2006-03-30 07:33:40 51°23.658 2°53.387 -999 248 8.5 99930 98
2006-03-30 07:33:45 51°23.675 2°53.394 -999 257 8.5 99930 98
2006-03-30 07:33:50 51°23.691 2°53.404 -999 264 8.5 99920 98
2006-03-30 07:33:55 51°23.707 2°53.41 -999 251 8.5 99920 98
2006-03-30 07:34:00 51°23.723 2°53.423 -999 242 8.5 99920 98
2006-03-30 07:34:05 51°23.74 2°53.426 -999 246 8.5 99920 98
2006-03-30 07:34:10 51°23.756 2°53.437 -999 252 8.5 99930 98
2006-03-30 07:34:15 51°23.774 2°53.439 -999 244 8.5 99930 98
2006-03-30 07:34:20 51°23.789 2°53.45 -999 260 8.5 99920 98
2006-03-30 07:34:25 51°23.806 2°53.456 -999 253 8.5 99920 98
2006-03-30 07:34:30 51°23.822 2°53.464 -999 256 8.5 99930 98
2006-03-30 07:34:35 51°23.837 2°53.473 -999 259 8.5 99930 98
2006-03-30 07:34:40 51°23.854 2°53.477 -999 247 8.5 99920 98
2006-03-30 07:34:45 51°23.869 2°53.487 -999 255 8.5 99920 98
2006-03-30 07:34:50 51°23.885 2°53.495 -999 254 8.5 99930 98
2006-03-30 07:34:55 51°23.901 2°53.504 -999 257 8.5 99930 98
2006-03-30 07:35:00 51°23.917 2°53.513 -999 257 8.5 99940 98
2006-03-30 07:35:05 51°23.933 2°53.521 -999 253 8.5 99940 98
2006-03-30 07:35:09 51°23.946 2°53.526 -999 250 8.5 99930 98
2006-03-30 07:35:15 51°23.964 2°53.539 -999 255 8.5 99930 98
2006-03-30 07:35:20 51°23.98 2°53.547 -999 251 8.5 99930 98
2006-03-30 07:35:25 51°23.996 2°53.556 -999 260 8.5 99930 98
2006-03-30 07:35:30 51°24.012 2°53.563 -999 259 8.5 99930 98
2006-03-30 07:35:35 51°24.028 2°53.574 -999 263 8.5 99930 98
2006-03-30 07:35:40 51°24.044 2°53.58 -999 258 8.5 99940 98
2006-03-30 07:35:45 51°24.059 2°53.588 -999 254 8.5 99940 98
2006-03-30 07:35:50 51°24.075 2°53.599 -999 254 8.4 99930 98
2006-03-30 07:35:55 51°24.092 2°53.606 -999 261 8.4 99930 98
2006-03-30 07:36:00 51°24.107 2°53.612 -999 257 8.4 99940 98
2006-03-30 07:36:04 51°24.119 2°53.621 -999 265 8.4 99940 98
2006-03-30 07:36:10 51°24.139 2°53.63 -999 265 8.4 99950 98
2006-03-30 07:36:15 51°24.155 2°53.635 -999 249 8.4 99950 98
2006-03-30 07:36:20 51°24.17 2°53.647 -999 246 8.4 99940 98
2006-03-30 07:36:25 51°24.187 2°53.647 -999 247 8.4 99940 98
2006-03-30 07:36:30 51°24.203 2°53.657 -999 251 8.4 99940 98
2006-03-30 07:36:35 51°24.219 2°53.662 -999 268 8.4 99940 98
2006-03-30 07:36:40 51°24.235 2°53.667 -999 275 8.4 99930 98
2006-03-30 07:36:45 51°24.252 2°53.671 -999 261 8.4 99930 98
2006-03-30 07:36:50 51°24.268 2°53.678 -999 261 8.4 99930 98
2006-03-30 07:36:55 51°24.285 2°53.685 -999 247 8.4 99930 98
2006-03-30 07:37:00 51°24.3 2°53.689 -999 255 8.4 99950 98
2006-03-30 07:37:05 51°24.316 2°53.699 -999 264 8.4 99950 98
2006-03-30 07:37:10 51°24.333 2°53.701 -999 272 8.4 99940 98
2006-03-30 07:37:15 51°24.348 2°53.709 -999 271 8.4 99940 98
2006-03-30 07:37:20 51°24.365 2°53.715 -999 265 8.4 99940 98
2006-03-30 07:37:25 51°24.382 2°53.721 -999 266 8.4 99940 98
2006-03-30 07:37:29 51°24.395 2°53.725 -999 265 8.4 99950 98
2006-03-30 07:37:35 51°24.414 2°53.731 -999 263 8.4 99950 98
2006-03-30 07:37:40 51°24.431 2°53.738 -999 266 8.4 99950 98
2006-03-30 07:37:45 51°24.448 2°53.741 -999 259 8.4 99950 98
2006-03-30 07:37:50 51°24.464 2°53.746 -999 263 8.4 99940 98
2006-03-30 07:37:55 51°24.481 2°53.748 -999 271 8.4 99940 98
2006-03-30 07:38:00 51°24.498 2°53.753 -999 268 8.4 99940 98
2006-03-30 07:38:05 51°24.514 2°53.758 -999 268 8.4 99940 98
2006-03-30 07:38:10 51°24.531 2°53.762 -999 262 8.4 99930 98
2006-03-30 07:38:15 51°24.548 2°53.769 -999 258 8.4 99930 98
2006-03-30 07:38:20 51°24.564 2°53.772 -999 261 8.4 99930 99
2006-03-30 07:38:25 51°24.581 2°53.782 -999 267 8.4 99930 99
2006-03-30 07:38:30 51°24.598 2°53.782 -999 272 8.4 99950 98
2006-03-30 07:38:35 51°24.614 2°53.79 -999 262 8.4 99950 98
2006-03-30 07:38:40 51°24.631 2°53.792 -999 263 8.4 99940 98
2006-03-30 07:38:45 51°24.648 2°53.799 -999 254 8.4 99940 98
2006-03-30 07:38:50 51°24.664 2°53.8 -999 262 8.4 99950 98
2006-03-30 07:38:55 51°24.681 2°53.808 -999 260 8.4 99950 98
2006-03-30 07:39:00 51°24.697 2°53.809 -999 261 8.4 99940 98
2006-03-30 07:39:05 51°24.713 2°53.82 -999 260 8.4 99940 98
2006-03-30 07:39:10 51°24.729 2°53.824 -999 263 8.4 99940 98
2006-03-30 07:39:15 51°24.745 2°53.83 -999 260 8.4 99940 98
2006-03-30 07:39:20 51°24.761 2°53.836 -999 253 8.3 99940 98
2006-03-30 07:39:26 51°24.78 2°53.845 -999 268 8.3 99940 98
2006-03-30 07:39:30 51°24.794 2°53.849 -999 259 8.4 99950 98
2006-03-30 07:39:35 51°24.809 2°53.857 -999 269 8.4 99950 98
2006-03-30 07:39:40 51°24.826 2°53.861 -999 264 8.4 99930 98
2006-03-30 07:39:45 51°24.842 2°53.866 -999 255 8.4 99930 98
2006-03-30 07:39:50 51°24.858 2°53.872 -999 250 8.3 99950 98
2006-03-30 07:39:55 51°24.875 2°53.876 -999 262 8.3 99950 98
2006-03-30 07:40:00 51°24.891 2°53.884 -999 261 8.4 99930 99
2006-03-30 07:40:05 51°24.907 2°53.888 -999 261 8.4 99930 99
2006-03-30 07:40:10 51°24.924 2°53.895 -999 254 8.4 99930 98
2006-03-30 07:40:16 51°24.943 2°53.906 -999 261 8.4 99930 98
2006-03-30 07:40:20 51°24.957 2°53.904 -999 260 8.4 99930 98
2006-03-30 07:40:25 51°24.973 2°53.91 -999 258 8.4 99930 98
2006-03-30 07:40:30 51°24.99 2°53.915 -999 260 8.3 99930 98
2006-03-30 07:40:35 51°25.007 2°53.919 -999 250 8.3 99930 98
2006-03-30 07:40:40 51°25.023 2°53.924 -999 260 8.4 99930 99
2006-03-30 07:40:45 51°25.04 2°53.929 -999 265 8.4 99930 99
2006-03-30 07:40:50 51°25.056 2°53.934 -999 251 8.3 99920 99
2006-03-30 07:40:55 51°25.073 2°53.941 -999 262 8.3 99920 99
2006-03-30 07:41:00 51°25.09 2°53.946 -999 258 8.4 99910 99
2006-03-30 07:41:05 51°25.106 2°53.951 -999 268 8.4 99910 99
2006-03-30 07:41:10 51°25.123 2°53.959 -999 264 8.4 99930 99
2006-03-30 07:41:15 51°25.14 2°53.961 -999 262 8.4 99930 99
2006-03-30 07:41:20 51°25.156 2°53.969 -999 253 8.3 99930 99
2006-03-30 07:41:25 51°25.173 2°53.972 -999 252 8.3 99930 99
2006-03-30 07:41:30 51°25.19 2°53.98 -999 255 8.4 99930 99
2006-03-30 07:41:35 51°25.207 2°53.985 -999 255 8.4 99930 99
2006-03-30 07:41:40 51°25.224 2°53.992 -999 258 8.3 99910 99
2006-03-30 07:41:45 51°25.24 2°53.998 -999 254 8.3 99910 99
2006-03-30 07:41:50 51°25.257 2°54.003 -999 257 8.3 99920 99
2006-03-30 07:41:55 51°25.274 2°54.011 -999 260 8.3 99920 99
2006-03-30 07:42:00 51°25.291 2°54.015 -999 257 8.3 99940 99
2006-03-30 07:42:05 51°25.307 2°54.024 -999 270 8.3 99940 99
2006-03-30 07:42:10 51°25.324 2°54.026 -999 266 8.3 99940 99
2006-03-30 07:42:15 51°25.341 2°54.033 -999 262 8.3 99940 99
2006-03-30 07:42:20 51°25.358 2°54.037 -999 263 8.3 99930 99
2006-03-30 07:42:25 51°25.375 2°54.044 -999 269 8.3 99930 99
2006-03-30 07:42:30 51°25.392 2°54.05 -999 260 8.3 99950 99
2006-03-30 07:42:35 51°25.409 2°54.053 -999 248 8.3 99950 99
2006-03-30 07:42:40 51°25.425 2°54.061 -999 259 8.3 99940 99
2006-03-30 07:42:45 51°25.442 2°54.063 -999 258 8.3 99940 99
2006-03-30 07:42:50 51°25.457 2°54.071 -999 254 8.3 99940 99
2006-03-30 07:42:55 51°25.473 2°54.076 -999 249 8.3 99940 99
2006-03-30 07:43:00 51°25.489 2°54.083 -999 246 8.3 99920 99
2006-03-30 07:43:05 51°25.505 2°54.088 -999 251 8.3 99920 99
2006-03-30 07:43:10 51°25.521 2°54.096 -999 257 8.3 99920 99
2006-03-30 07:43:15 51°25.538 2°54.099 -999 263 8.3 99920 99
2006-03-30 07:43:20 51°25.554 2°54.107 -999 250 8.3 99930 99
2006-03-30 07:43:25 51°25.571 2°54.112 -999 255 8.3 99930 99
2006-03-30 07:43:30 51°25.588 2°54.116 -999 254 8.3 99930 99
2006-03-30 07:43:35 51°25.604 2°54.124 -999 264 8.3 99930 99
2006-03-30 07:43:40 51°25.621 2°54.127 -999 259 8.3 99910 99
2006-03-30 07:43:45 51°25.638 2°54.136 -999 257 8.3 99910 99
2006-03-30 07:43:50 51°25.655 2°54.138 -999 265 8.3 99930 99
2006-03-30 07:43:55 51°25.671 2°54.146 -999 260 8.3 99930 99
2006-03-30 07:44:00 51°25.688 2°54.146 -999 262 8.3 99950 99
2006-03-30 07:44:05 51°25.705 2°54.155 -999 257 8.3 99950 99
2006-03-30 07:44:10 51°25.722 2°54.156 -999 261 8.3 99940 99
2006-03-30 07:44:15 51°25.739 2°54.164 -999 254 8.3 99940 99
2006-03-30 07:44:20 51°25.755 2°54.168 -999 253 8.3 99950 99
2006-03-30 07:44:25 51°25.772 2°54.176 -999 257 8.3 99950 99
2006-03-30 07:44:30 51°25.79 2°54.177 -999 261 8.3 99950 99
2006-03-30 07:44:36 51°25.808 2°54.186 -999 255 8.3 99950 99
2006-03-30 07:44:40 51°25.821 2°54.19 -999 258 8.3 99940 99
2006-03-30 07:44:45 51°25.838 2°54.196 -999 258 8.3 99940 99
2006-03-30 07:44:50 51°25.855 2°54.199 -999 262 8.3 99940 99
2006-03-30 07:44:55 51°25.872 2°54.208 -999 262 8.3 99940 99
2006-03-30 07:45:00 51°25.889 2°54.209 -999 262 8.3 99940 99
2006-03-30 07:45:05 51°25.905 2°54.216 -999 260 8.3 99940 99
2006-03-30 07:45:10 51°25.922 2°54.221 -999 256 8.3 99930 99
2006-03-30 07:45:15 51°25.939 2°54.225 -999 264 8.3 99930 99
2006-03-30 07:45:20 51°25.956 2°54.23 -999 255 8.3 99930 99
2006-03-30 07:45:25 51°25.973 2°54.231 -999 259 8.3 99930 99
2006-03-30 07:45:30 51°25.989 2°54.239 -999 250 8.3 99940 99
2006-03-30 07:45:35 51°26.007 2°54.24 -999 258 8.3 99940 99
2006-03-30 07:45:40 51°26.023 2°54.251 -999 251 8.3 99930 99
2006-03-30 07:45:45 51°26.04 2°54.249 -999 266 8.3 99930 99
2006-03-30 07:45:50 51°26.056 2°54.255 -999 259 8.3 99940 99
2006-03-30 07:45:55 51°26.072 2°54.258 -999 260 8.3 99940 99
2006-03-30 07:46:00 51°26.089 2°54.263 -999 249 8.3 99920 99
2006-03-30 07:46:05 51°26.106 2°54.267 -999 256 8.3 99920 99
2006-03-30 07:46:10 51°26.121 2°54.274 -999 257 8.3 99920 99
2006-03-30 07:46:15 51°26.138 2°54.277 -999 258 8.3 99920 99
2006-03-30 07:46:20 51°26.154 2°54.283 -999 242 8.2 99930 99
2006-03-30 07:46:26 51°26.173 2°54.289 -999 260 8.2 99930 99
2006-03-30 07:46:30 51°26.186 2°54.295 -999 266 8.2 99930 99
2006-03-30 07:46:35 51°26.203 2°54.299 -999 249 8.2 99930 99
2006-03-30 07:46:40 51°26.219 2°54.308 -999 259 8.2 99930 99
2006-03-30 07:46:45 51°26.236 2°54.31 -999 251 8.2 99930 99
2006-03-30 07:46:50 51°26.252 2°54.322 -999 269 8.2 99940 99
2006-03-30 07:46:55 51°26.269 2°54.321 -999 245 8.2 99940 99
2006-03-30 07:47:00 51°26.284 2°54.332 -999 249 8.2 99940 99
2006-03-30 07:47:05 51°26.3 2°54.335 -999 253 8.2 99940 99
2006-03-30 07:47:10 51°26.316 2°54.344 -999 260 8.2 99930 99
2006-03-30 07:47:15 51°26.332 2°54.348 -999 245 8.2 99930 99
2006-03-30 07:47:20 51°26.348 2°54.356 -999 249 8.2 99920 99
2006-03-30 07:47:25 51°26.364 2°54.362 -999 248 8.2 99920 99
2006-03-30 07:47:30 51°26.38 2°54.367 -999 253 8.2 99930 99
2006-03-30 07:47:35 51°26.396 2°54.374 -999 252 8.2 99930 99
2006-03-30 07:47:40 51°26.413 2°54.38 -999 256 8.2 99940 99
2006-03-30 07:47:45 51°26.43 2°54.385 -999 254 8.2 99940 99
2006-03-30 07:47:50 51°26.446 2°54.394 -999 250 8.2 99930 99
2006-03-30 07:47:55 51°26.464 2°54.395 -999 261 8.2 99930 99
2006-03-30 07:48:00 51°26.481 2°54.401 -999 263 8.2 99940 99
2006-03-30 07:48:06 51°26.5 2°54.403 -999 258 8.2 99940 99
2006-03-30 07:48:10 51°26.512 2°54.41 -999 249 8.2 99920 99
2006-03-30 07:48:15 51°26.529 2°54.414 -999 258 8.2 99920 99
2006-03-30 07:48:20 51°26.546 2°54.419 -999 255 8.2 99930 99
2006-03-30 07:48:24 51°26.558 2°54.423 -999 257 8.2 99930 99
2006-03-30 07:48:30 51°26.578 2°54.432 -999 254 8.2 99930 99
2006-03-30 07:48:35 51°26.595 2°54.434 -999 260 8.2 99930 99
2006-03-30 07:48:40 51°26.611 2°54.444 -999 252 8.2 99940 99
2006-03-30 07:48:45 51°26.628 2°54.445 -999 250 8.2 99940 99
2006-03-30 07:48:50 51°26.643 2°54.455 -999 251 8.1 99930 99
2006-03-30 07:48:55 51°26.659 2°54.456 -999 254 8.1 99930 99
2006-03-30 07:49:00 51°26.675 2°54.467 -999 239 8.1 99930 99
2006-03-30 07:49:05 51°26.691 2°54.467 -999 237 8.1 99930 99
2006-03-30 07:49:10 51°26.706 2°54.479 -999 244 8.1 99930 99
2006-03-30 07:49:15 51°26.723 2°54.477 -999 231 8.1 99930 99
2006-03-30 07:49:20 51°26.738 2°54.487 -999 239 8.2 99930 99
2006-03-30 07:49:25 51°26.754 2°54.492 -999 261 8.2 99930 99
2006-03-30 07:49:30 51°26.769 2°54.5 -999 247 8.2 99930 99
2006-03-30 07:49:35 51°26.785 2°54.508 -999 240 8.2 99930 99
2006-03-30 07:49:40 51°26.801 2°54.51 -999 259 8.2 99940 99
2006-03-30 07:49:45 51°26.816 2°54.521 -999 260 8.2 99940 99
2006-03-30 07:49:50 51°26.833 2°54.522 -999 262 8.2 99930 99
2006-03-30 07:49:55 51°26.848 2°54.533 -999 253 8.2 99930 99
2006-03-30 07:50:00 51°26.864 2°54.536 -999 254 8.2 99940 99
2006-03-30 07:50:05 51°26.88 2°54.544 -999 260 8.2 99940 99
2006-03-30 07:50:10 51°26.896 2°54.548 -999 246 8.2 99940 99
2006-03-30 07:50:15 51°26.912 2°54.557 -999 251 8.2 99940 99
2006-03-30 07:50:20 51°26.929 2°54.558 -999 256 8.2 99950 99
2006-03-30 07:50:26 51°26.947 2°54.568 -999 258 8.2 99950 99
2006-03-30 07:50:30 51°26.96 2°54.571 -999 251 8.2 99940 99
2006-03-30 07:50:35 51°26.976 2°54.58 -999 263 8.2 99940 99
2006-03-30 07:50:40 51°26.992 2°54.585 -999 250 8.2 99940 99
2006-03-30 07:50:45 51°27.009 2°54.592 -999 256 8.2 99940 99
2006-03-30 07:50:50 51°27.024 2°54.597 -999 248 8.2 99950 99
2006-03-30 07:50:55 51°27.04 2°54.606 -999 265 8.2 99950 99
2006-03-30 07:51:00 51°27.056 2°54.611 -999 240 8.2 99950 99
2006-03-30 07:51:05 51°27.072 2°54.616 -999 252 8.2 99950 99
2006-03-30 07:51:10 51°27.087 2°54.622 -999 268 8.2 99940 99
2006-03-30 07:51:15 51°27.103 2°54.63 -999 249 8.2 99940 99
2006-03-30 07:51:20 51°27.119 2°54.634 -999 253 8.2 99940 99
2006-03-30 07:51:25 51°27.135 2°54.641 -999 250 8.2 99940 99
2006-03-30 07:51:30 51°27.15 2°54.647 -999 261 8.2 99930 99
2006-03-30 07:51:35 51°27.166 2°54.655 -999 255 8.2 99930 99
2006-03-30 07:51:40 51°27.183 2°54.656 -999 250 8.2 99940 99
2006-03-30 07:51:45 51°27.198 2°54.666 -999 261 8.2 99940 99
2006-03-30 07:51:50 51°27.215 2°54.669 -999 260 8.2 99930 99
2006-03-30 07:51:55 51°27.231 2°54.677 -999 234 8.2 99930 99
2006-03-30 07:52:00 51°27.247 2°54.681 -999 250 8.2 99950 99
2006-03-30 07:52:05 51°27.263 2°54.689 -999 256 8.2 99950 99
2006-03-30 07:52:10 51°27.28 2°54.692 -999 262 8.2 99950 99
2006-03-30 07:52:15 51°27.296 2°54.701 -999 258 8.2 99950 99
2006-03-30 07:52:20 51°27.313 2°54.703 -999 257 8.1 99930 99
2006-03-30 07:52:25 51°27.329 2°54.711 -999 257 8.1 99930 99
2006-03-30 07:52:30 51°27.346 2°54.715 -999 256 8.2 99940 99
2006-03-30 07:52:35 51°27.362 2°54.723 -999 248 8.2 99940 99
2006-03-30 07:52:40 51°27.379 2°54.723 -999 254 8.1 99930 99
2006-03-30 07:52:45 51°27.396 2°54.734 -999 268 8.1 99930 99
2006-03-30 07:52:50 51°27.413 2°54.734 -999 255 8.2 99930 99
2006-03-30 07:52:55 51°27.428 2°54.744 -999 262 8.2 99930 99
2006-03-30 07:53:00 51°27.445 2°54.746 -999 263 8.1 99940 99
2006-03-30 07:53:06 51°27.464 2°54.754 -999 258 8.1 99940 99
2006-03-30 07:53:10 51°27.477 2°54.759 -999 259 8.1 99950 99
2006-03-30 07:53:15 51°27.493 2°54.764 -999 260 8.1 99950 99
2006-03-30 07:53:20 51°27.509 2°54.769 -999 252 8.1 99940 99
2006-03-30 07:53:25 51°27.526 2°54.777 -999 256 8.1 99940 99
2006-03-30 07:53:30 51°27.543 2°54.779 -999 256 8.1 99930 99
2006-03-30 07:53:35 51°27.559 2°54.787 -999 254 8.1 99930 99
2006-03-30 07:53:40 51°27.576 2°54.79 -999 253 8.1 99920 99
2006-03-30 07:53:45 51°27.592 2°54.798 -999 265 8.1 99920 99
2006-03-30 07:53:50 51°27.608 2°54.802 -999 256 8.1 99930 99
2006-03-30 07:53:55 51°27.624 2°54.809 -999 251 8.1 99930 99
2006-03-30 07:54:00 51°27.641 2°54.814 -999 256 8.1 99930 99
2006-03-30 07:54:05 51°27.657 2°54.818 -999 259 8.1 99930 99
2006-03-30 07:54:10 51°27.673 2°54.825 -999 252 8.1 99940 99
2006-03-30 07:54:15 51°27.689 2°54.829 -999 251 8.1 99940 99
2006-03-30 07:54:20 51°27.705 2°54.836 -999 251 8.1 99930 99
2006-03-30 07:54:25 51°27.72 2°54.841 -999 248 8.1 99930 99
2006-03-30 07:54:30 51°27.736 2°54.85 -999 252 8.1 99930 99
2006-03-30 07:54:35 51°27.753 2°54.853 -999 236 8.1 99930 99
2006-03-30 07:54:40 51°27.768 2°54.86 -999 251 8.1 99930 99
2006-03-30 07:54:45 51°27.785 2°54.866 -999 260 8.1 99930 99
2006-03-30 07:54:50 51°27.802 2°54.872 -999 254 8.1 99920 99
2006-03-30 07:54:55 51°27.818 2°54.874 -999 251 8.1 99920 99
2006-03-30 07:55:00 51°27.834 2°54.881 -999 264 8.1 99920 99
2006-03-30 07:55:05 51°27.85 2°54.885 -999 253 8.1 99920 99
2006-03-30 07:55:10 51°27.866 2°54.893 -999 250 8.1 99930 99
2006-03-30 07:55:15 51°27.882 2°54.896 -999 258 8.1 99930 99
2006-03-30 07:55:20 51°27.899 2°54.903 -999 256 8.1 99920 99
2006-03-30 07:55:24 51°27.912 2°54.904 -999 256 8.1 99920 99